This is the latest recevied weather packets stored in our database for station/object WD4IXD-WX. If no packets are shown the sender has not sent any weather packets the latest 10 day(s).
| Time | Temp. | Humidity | Pressure | Rain* | Wind** | Luminosity | Snow |
|---|---|---|---|---|---|---|---|
| 1777400704 | 5° C | 34% | 1018.4 hPa | 0 mm | - | 1116 W/m² | - |
| 1777400404 | 5° C | 34% | 1018.3 hPa | 0 mm | - | 1120 W/m² | - |
| 1777400103 | 5.56° C | 34% | 1018.2 hPa | 0 mm | - | 1083 W/m² | - |
| 1777399804 | 5° C | 35% | 1018.2 hPa | 0 mm | - | 1039 W/m² | - |
| 1777399504 | 5° C | 34% | 1018.3 hPa | 0 mm | - | 1004 W/m² | - |
| 1777399204 | 5° C | 40% | 1018.1 hPa | 0 mm | - | 988 W/m² | - |
| 1777398904 | 4.44° C | 42% | 1018.1 hPa | 0 mm | - | 1058 W/m² | - |
| 1777398604 | 3.89° C | 42% | 1018.2 hPa | 0 mm | - | 1018 W/m² | - |
| 1777398304 | 4.44° C | 40% | 1018.2 hPa | 0 mm | - | 983 W/m² | - |
| 1777398004 | 4.44° C | 43% | 1018.1 hPa | 0 mm | - | 981 W/m² | - |
| 1777397703 | 3.89° C | 43% | 1018.1 hPa | 0 mm | - | 1030 W/m² | - |
| 1777397403 | 3.89° C | 42% | 1018.1 hPa | 0 mm | - | 958 W/m² | - |
| 1777397104 | 4.44° C | 43% | 1018.1 hPa | 0 mm | - | 1002 W/m² | - |
| 1777396804 | 3.89° C | 41% | 1018.1 hPa | 0 mm | - | 944 W/m² | - |
| 1777396504 | 3.33° C | 44% | 1018.1 hPa | 0 mm | - | 914 W/m² | - |
| 1777396204 | 2.78° C | 45% | 1018.1 hPa | 0 mm | - | 882 W/m² | - |
| 1777395904 | 2.78° C | 45% | 1018.1 hPa | 0 mm | - | 278 W/m² | - |
| 1777395604 | 2.78° C | 45% | 1018.1 hPa | 0 mm | - | 316 W/m² | - |
| 1777395303 | 2.78° C | 45% | 1018.1 hPa | 0 mm | - | 336 W/m² | - |
| 1777395004 | 2.78° C | 46% | 1018 hPa | 0 mm | - | 315 W/m² | - |
| 1777394704 | 3.33° C | 45% | 1018 hPa | 0 mm | - | 403 W/m² | - |
| 1777394403 | 2.78° C | 46% | 1017.9 hPa | 0 mm | - | 425 W/m² | - |
| 1777394104 | 3.33° C | 45% | 1017.9 hPa | 0 mm | - | 302 W/m² | - |
| 1777393804 | 3.33° C | 43% | 1017.9 hPa | 0 mm | - | 367 W/m² | - |
| 1777393504 | 3.33° C | 44% | 1017.8 hPa | 0 mm | - | 462 W/m² | - |
* Rain latest hour (hover to see other rain measurements)
** Current wind speed in m/s (hover to see current wind gust speed)